Time;durP1;ratioP1;P1;durP2;ratioP2;P2;SDS_P1;SDS_P2;PMS_P1;PMS_P2;Temp;Humidity;BMP_temperature;BMP_pressure;BME280_temperature;BME280_humidity;BME280_pressure;Samples;Min_cycle;Max_cycle;Signal;HPM_P1;HPM_P2
2022/03/25 00:00:54;;;;;;;15.10;7.15;;;;;;;6.28;39.10;100685.50;4481452;31;35437;-75
2022/03/25 00:03:40;;;;;;;14.18;6.47;;;;;;;7.02;37.83;100686.66;4482053;32;35619;-75
2022/03/25 00:06:27;;;;;;;16.92;6.97;;;;;;;7.19;37.18;100687.34;4478198;31;34749;-75
2022/03/25 00:09:13;;;;;;;15.63;6.57;;;;;;;7.54;36.34;100685.91;4479749;32;34156;-75
2022/03/25 00:12:00;;;;;;;15.27;6.12;;;;;;;7.59;36.63;100677.72;4470126;32;33367;-75
2022/03/25 00:14:46;;;;;;;13.40;6.15;;;;;;;7.73;36.20;100682.72;4481185;32;34998;-75
2022/03/25 00:17:33;;;;;;;13.38;6.30;;;;;;;7.90;35.76;100680.59;4469218;32;34542;-75
2022/03/25 00:20:19;;;;;;;14.10;7.03;;;;;;;7.91;36.10;100684.13;4474121;32;34907;-75
2022/03/25 00:23:06;;;;;;;15.90;7.05;;;;;;;7.78;36.27;100682.75;4479771;32;35021;-75
2022/03/25 00:25:53;;;;;;;14.60;6.37;;;;;;;7.76;36.42;100687.63;4481013;32;35450;-74
2022/03/25 00:28:39;;;;;;;16.73;6.97;;;;;;;7.53;36.61;100681.53;4480611;32;34157;-74
2022/03/25 00:31:25;;;;;;;14.07;6.90;;;;;;;6.27;39.32;100685.75;4470203;32;35173;-74
2022/03/25 00:34:12;;;;;;;15.63;7.10;;;;;;;5.13;42.13;100679.16;4480872;32;34678;-74
2022/03/25 00:36:59;;;;;;;16.42;6.75;;;;;;;6.73;39.19;100684.28;4479656;32;35931;-74
2022/03/25 00:39:48;;;;;;;14.40;7.43;;;;;;;6.07;40.34;100691.81;4479251;31;35556;-74
2022/03/25 00:42:35;;;;;;;16.92;7.82;;;;;;;6.73;38.68;100686.19;4470403;32;32820;-74
2022/03/25 00:45:21;;;;;;;16.27;8.00;;;;;;;5.48;41.57;100683.44;4472098;32;34467;-74
2022/03/25 00:48:08;;;;;;;19.58;9.00;;;;;;;6.56;39.14;100688.22;4480999;31;35255;-74
2022/03/25 00:50:55;;;;;;;18.15;8.85;;;;;;;6.99;38.15;100671.66;4480193;32;35327;-75
2022/03/25 00:53:41;;;;;;;21.08;9.23;;;;;;;7.21;37.70;100681.63;4473285;32;34355;-75
2022/03/25 00:56:29;;;;;;;22.17;9.75;;;;;;;7.36;37.32;100676.25;4479474;32;34590;-76
2022/03/25 00:59:15;;;;;;;23.90;11.82;;;;;;;7.44;37.43;100680.41;4477070;32;35020;-75
2022/03/25 01:02:03;;;;;;;22.90;10.77;;;;;;;7.43;37.44;100676.84;4480087;31;34698;-75
2022/03/25 01:04:50;;;;;;;18.90;7.87;;;;;;;7.28;37.82;100679.47;4480294;32;35033;-75
2022/03/25 01:07:38;;;;;;;15.63;7.25;;;;;;;7.06;38.19;100676.06;4480358;32;35593;-75
2022/03/25 01:10:24;;;;;;;17.87;7.12;;;;;;;6.72;38.78;100665.47;4481376;32;34961;-76
2022/03/25 01:13:10;;;;;;;16.30;6.05;;;;;;;6.45;39.25;100676.41;4471783;31;34617;-75
2022/03/25 01:15:57;;;;;;;13.40;5.37;;;;;;;5.67;41.37;100673.09;4481637;32;34158;-75
2022/03/25 01:18:43;;;;;;;13.20;6.30;;;;;;;6.01;40.33;100668.34;4470809;32;34569;-75
2022/03/25 01:21:32;;;;;;;15.20;6.60;;;;;;;6.71;38.97;100670.09;4480638;32;34663;-75
2022/03/25 01:24:19;;;;;;;16.12;5.80;;;;;;;6.63;38.93;100667.87;4458384;31;35517;-75
2022/03/25 01:27:06;;;;;;;12.18;5.62;;;;;;;6.60;39.19;100673.00;4473622;32;35148;-75
2022/03/25 01:29:52;;;;;;;13.30;5.47;;;;;;;6.70;39.10;100673.91;4469095;32;35058;-75
2022/03/25 01:32:38;;;;;;;15.10;5.97;;;;;;;6.79;38.90;100676.16;4480603;32;36035;-75
2022/03/25 01:35:25;;;;;;;14.93;6.57;;;;;;;6.70;39.24;100679.34;4480014;32;34631;-75
2022/03/25 01:38:11;;;;;;;14.25;6.40;;;;;;;6.74;39.15;100680.50;4481224;32;34298;-76
2022/03/25 01:40:58;;;;;;;14.32;6.45;;;;;;;6.26;40.21;100684.94;4480729;32;34606;-75
2022/03/25 01:43:53;;;;;;;15.88;6.22;;;;;;;6.68;39.70;100677.97;4470133;32;35943;-75
2022/03/25 01:46:39;;;;;;;12.50;5.70;;;;;;;6.72;39.60;100684.56;4476018;32;34659;-76
2022/03/25 01:49:26;;;;;;;14.73;5.35;;;;;;;6.21;40.80;100695.78;4481344;32;34406;-76
2022/03/25 01:52:12;;;;;;;11.02;5.20;;;;;;;5.62;42.40;100692.88;4478126;32;34649;-76
2022/03/25 01:55:14;;;;;;;14.10;5.60;;;;;;;6.28;40.90;100690.94;4481551;31;35001;-75
2022/03/25 01:58:00;;;;;;;15.03;5.53;;;;;;;6.41;40.38;100692.44;4480371;32;34582;-75
2022/03/25 02:00:48;;;;;;;14.07;5.80;;;;;;;5.18;43.32;100700.97;4480924;32;35772;-76
2022/03/25 02:03:34;;;;;;;11.95;5.75;;;;;;;5.83;42.22;100697.50;4480791;32;34388;-75
2022/03/25 02:06:21;;;;;;;13.48;6.70;;;;;;;5.34;42.80;100694.66;4479007;32;35011;-75
2022/03/25 02:09:07;;;;;;;12.37;5.53;;;;;;;4.60;44.25;100702.22;4476416;32;34518;-75
2022/03/25 02:11:56;;;;;;;11.55;5.37;;;;;;;4.88;44.95;100699.41;4468806;32;35058;-75
2022/03/25 02:14:43;;;;;;;14.00;6.10;;;;;;;5.04;43.91;100700.50;4480088;32;34729;-76
2022/03/25 02:17:30;;;;;;;13.23;5.53;;;;;;;4.25;45.58;100701.31;4480620;32;35943;-75
2022/03/25 02:20:16;;;;;;;13.65;5.53;;;;;;;5.32;43.72;100702.28;4475419;32;35210;-75
2022/03/25 02:23:04;;;;;;;12.13;5.12;;;;;;;5.67;42.64;100706.53;4468459;32;34205;-75
2022/03/25 02:25:52;;;;;;;10.50;4.60;;;;;;;5.77;42.18;100706.66;4475339;32;34651;-75
2022/03/25 02:28:38;;;;;;;12.75;5.30;;;;;;;5.68;42.44;100707.34;4480706;31;36036;-75
2022/03/25 02:31:25;;;;;;;14.35;6.05;;;;;;;5.66;42.41;100707.59;4480708;32;34698;-75
2022/03/25 02:34:11;;;;;;;14.43;5.82;;;;;;;5.48;43.23;100705.19;4480535;32;35169;-75
2022/03/25 02:36:58;;;;;;;13.52;6.03;;;;;;;5.30;43.74;100715.28;4480598;32;34620;-75
2022/03/25 02:39:44;;;;;;;12.65;5.28;;;;;;;4.54;46.03;100716.75;4477742;32;34851;-75
2022/03/25 02:42:31;;;;;;;13.98;6.35;;;;;;;4.90;45.46;100724.44;4464611;31;34775;-75
2022/03/25 02:45:20;;;;;;;17.65;7.05;;;;;;;4.36;47.04;100732.19;4468402;32;34492;-75
2022/03/25 02:48:08;;;;;;;14.57;5.70;;;;;;;3.84;48.57;100724.09;4451813;32;34528;-75
2022/03/25 02:50:54;;;;;;;12.82;5.40;;;;;;;4.06;47.62;100733.22;4471961;32;35530;-75
2022/03/25 02:53:41;;;;;;;10.70;5.32;;;;;;;3.79;47.83;100737.56;4459378;32;35324;-75
2022/03/25 02:56:27;;;;;;;12.55;4.87;;;;;;;2.30;52.55;100741.31;4469733;32;33856;-73
2022/03/25 02:59:14;;;;;;;11.63;5.32;;;;;;;2.37;52.91;100750.16;4471225;31;35494;-74
2022/03/25 03:02:01;;;;;;;12.60;5.50;;;;;;;3.88;48.63;100741.56;4480347;32;35952;-74
2022/03/25 03:04:49;;;;;;;15.52;5.45;;;;;;;4.30;47.38;100749.44;4480814;31;34633;-73
2022/03/25 03:07:36;;;;;;;14.00;5.75;;;;;;;4.32;47.23;100750.00;4479235;32;34139;-73
2022/03/25 03:10:24;;;;;;;13.18;5.15;;;;;;;3.21;49.94;100744.69;4458566;32;34629;-74
2022/03/25 03:13:10;;;;;;;14.00;4.90;;;;;;;3.91;48.63;100745.69;4471915;32;34928;-74
2022/03/25 03:15:57;;;;;;;10.98;4.90;;;;;;;4.02;47.80;100747.53;4467687;32;34194;-73
2022/03/25 03:18:43;;;;;;;12.90;6.57;;;;;;;4.59;46.56;100752.97;4479733;32;34233;-73
2022/03/25 03:21:31;;;;;;;11.43;4.97;;;;;;;4.62;46.25;100755.19;4472185;32;34591;-73
2022/03/25 03:24:18;;;;;;;16.40;5.93;;;;;;;4.15;47.73;100749.94;4479653;32;35855;-74
2022/03/25 03:27:04;;;;;;;12.60;5.60;;;;;;;4.48;46.64;100748.41;4480403;31;34197;-73
2022/03/25 03:29:50;;;;;;;11.50;5.40;;;;;;;4.58;45.98;100758.63;4481350;32;34209;-74
2022/03/25 03:32:37;;;;;;;13.35;6.37;;;;;;;4.90;45.36;100751.59;4471436;32;35618;-74
2022/03/25 03:35:27;;;;;;;12.60;6.00;;;;;;;4.47;46.23;100754.91;4475143;32;34980;-74
2022/03/25 03:38:13;;;;;;;14.48;6.43;;;;;;;4.97;45.13;100754.16;4472059;32;34849;-74
2022/03/25 03:41:00;;;;;;;13.45;6.43;;;;;;;5.12;44.78;100750.84;4482062;31;34968;-73
2022/03/25 03:43:46;;;;;;;13.15;5.22;;;;;;;5.13;44.73;100747.09;4469784;32;34190;-74
2022/03/25 03:46:33;;;;;;;14.80;6.22;;;;;;;5.17;44.77;100753.66;4473935;32;34952;-73
2022/03/25 03:49:19;;;;;;;14.60;5.93;;;;;;;5.18;44.86;100755.31;4480021;31;35234;-74
2022/03/25 03:52:08;;;;;;;14.23;5.60;;;;;;;4.84;45.55;100755.31;4481132;32;35102;-73
2022/03/25 03:54:55;;;;;;;13.27;5.62;;;;;;;4.49;46.87;100747.34;4471152;32;35528;-73
2022/03/25 03:58:00;;;;;;;13.05;5.55;;;;;;;4.85;46.21;100751.50;4473991;32;35908;-73
2022/03/25 04:00:46;;;;;;;13.52;5.55;;;;;;;4.84;46.17;100749.88;4480056;32;34331;-73
2022/03/25 04:03:32;;;;;;;13.90;5.65;;;;;;;5.05;45.57;100745.59;4481629;31;34231;-73
2022/03/25 04:06:19;;;;;;;12.75;5.47;;;;;;;5.05;45.48;100747.50;4480692;32;34321;-74
2022/03/25 04:09:06;;;;;;;12.55;5.00;;;;;;;4.99;45.75;100745.75;4481168;32;34989;-74
2022/03/25 04:11:53;;;;;;;13.15;5.55;;;;;;;5.11;45.53;100744.59;4481070;32;34321;-73
2022/03/25 04:14:39;;;;;;;13.32;5.47;;;;;;;4.47;47.13;100744.88;4480094;32;34715;-73
2022/03/25 04:17:25;;;;;;;14.15;5.72;;;;;;;3.83;48.35;100744.16;4472836;31;34670;-73
2022/03/25 04:20:14;;;;;;;11.90;5.57;;;;;;;3.86;48.90;100743.66;4481004;32;34847;-73
2022/03/25 04:23:00;;;;;;;12.20;5.28;;;;;;;4.34;47.97;100745.16;4476724;31;34685;-74
2022/03/25 04:25:47;;;;;;;14.80;5.50;;;;;;;4.22;47.79;100747.12;4477459;32;35139;-74
2022/03/25 04:28:33;;;;;;;10.95;5.55;;;;;;;2.70;51.92;100736.16;4481294;32;34696;-73
2022/03/25 04:31:20;;;;;;;13.52;5.40;;;;;;;1.93;55.24;100745.97;4479435;32;35018;-73
2022/03/25 04:34:07;;;;;;;14.60;5.90;;;;;;;3.40;51.13;100742.69;4477970;32;34704;-73
2022/03/25 04:36:53;;;;;;;11.88;5.37;;;;;;;3.10;51.79;100751.75;4482329;32;35301;-71
2022/03/25 04:39:39;;;;;;;13.70;5.15;;;;;;;2.18;54.53;100751.25;4483639;32;35445;-71
2022/03/25 04:42:25;;;;;;;13.40;5.53;;;;;;;2.24;55.28;100753.88;4475113;32;35054;-71
2022/03/25 04:45:13;;;;;;;13.50;5.03;;;;;;;3.34;51.71;100751.75;4482491;32;34633;-71
2022/03/25 04:48:00;;;;;;;12.13;5.15;;;;;;;3.95;49.41;100753.06;4465889;32;35049;-71
2022/03/25 04:50:46;;;;;;;13.95;5.25;;;;;;;3.97;49.13;100759.09;4478442;32;34961;-72
2022/03/25 04:53:34;;;;;;;9.80;4.47;;;;;;;4.24;48.47;100756.66;4473883;32;35960;-71
2022/03/25 04:56:20;;;;;;;13.85;5.18;;;;;;;4.30;48.09;100757.59;4476923;32;34565;-71
2022/03/25 04:59:06;;;;;;;12.10;5.28;;;;;;;4.18;48.43;100763.03;4472842;32;34217;-71
2022/03/25 05:01:52;;;;;;;12.57;5.28;;;;;;;4.03;48.95;100752.69;4482371;32;35561;-72
2022/03/25 05:04:39;;;;;;;14.68;6.03;;;;;;;3.98;49.18;100758.00;4481861;31;33833;-72
2022/03/25 05:07:26;;;;;;;13.32;5.55;;;;;;;4.03;49.22;100754.59;4471827;32;34651;-72
2022/03/25 05:10:13;;;;;;;14.25;6.10;;;;;;;4.04;49.11;100756.22;4471646;32;33653;-72
2022/03/25 05:12:59;;;;;;;11.73;5.45;;;;;;;4.10;49.06;100766.16;4473798;32;35467;-72
2022/03/25 05:15:46;;;;;;;13.75;5.78;;;;;;;4.30;48.77;100765.72;4482029;32;34648;-72
2022/03/25 05:18:32;;;;;;;14.48;6.32;;;;;;;3.52;50.57;100762.47;4473099;32;34608;-72
2022/03/25 05:21:19;;;;;;;16.50;6.18;;;;;;;2.88;53.46;100775.03;4481995;31;34148;-72
2022/03/25 05:24:06;;;;;;;12.48;5.80;;;;;;;3.24;52.91;100778.59;4475496;32;34663;-72
2022/03/25 05:26:53;;;;;;;15.75;5.57;;;;;;;3.75;51.62;100768.91;4471540;32;35604;-72
2022/03/25 05:29:39;;;;;;;15.00;5.75;;;;;;;3.56;51.29;100766.34;4482737;32;34781;-72
2022/03/25 05:32:25;;;;;;;15.38;6.40;;;;;;;3.12;52.93;100775.87;4478184;31;35327;-72
2022/03/25 05:35:11;;;;;;;15.98;6.40;;;;;;;3.08;52.90;100772.81;4474915;32;34620;-72
2022/03/25 05:37:58;;;;;;;15.25;5.43;;;;;;;4.19;50.10;100774.72;4478517;32;35921;-72
2022/03/25 05:40:44;;;;;;;12.57;5.70;;;;;;;3.98;50.72;100779.72;4475327;31;34679;-72
2022/03/25 05:43:31;;;;;;;13.55;6.32;;;;;;;3.64;51.59;100777.88;4482086;31;35113;-72
2022/03/25 05:46:17;;;;;;;13.07;6.07;;;;;;;4.25;49.76;100787.31;4481089;32;34530;-72
2022/03/25 05:49:04;;;;;;;18.08;6.40;;;;;;;3.78;51.92;100790.13;4479879;32;34983;-72
2022/03/25 05:51:50;;;;;;;15.98;6.72;;;;;;;4.01;51.11;100787.41;4476247;32;34668;-72
2022/03/25 05:54:37;;;;;;;15.60;6.37;;;;;;;4.53;49.63;100782.97;4473867;32;34816;-72
2022/03/25 05:57:23;;;;;;;17.52;6.65;;;;;;;5.26;47.63;100779.31;4464750;32;34690;-74
2022/03/25 06:00:11;;;;;;;17.00;6.28;;;;;;;5.53;47.04;100781.38;4477006;31;35670;-75
2022/03/25 06:02:57;;;;;;;17.27;7.20;;;;;;;5.87;46.43;100769.34;4470884;32;34669;-75
2022/03/25 06:05:43;;;;;;;16.83;6.75;;;;;;;6.02;45.91;100770.66;4480829;32;34254;-73
2022/03/25 06:08:30;;;;;;;15.30;6.97;;;;;;;4.39;50.27;100780.53;4480330;32;35516;-76
2022/03/25 06:11:17;;;;;;;14.27;6.82;;;;;;;4.76;50.18;100785.56;4469216;32;35531;-76
2022/03/25 06:14:03;;;;;;;14.85;6.72;;;;;;;5.71;47.75;100764.78;4480404;32;34737;-75
2022/03/25 06:16:50;;;;;;;18.05;7.07;;;;;;;6.14;46.97;100767.78;4480723;31;34189;-74
2022/03/25 06:19:37;;;;;;;13.85;6.15;;;;;;;4.35;51.50;100783.97;4471954;32;32872;-76
2022/03/25 06:22:24;;;;;;;13.50;5.97;;;;;;;5.00;50.38;100775.38;4478340;32;35168;-76
2022/03/25 06:25:11;;;;;;;15.50;6.57;;;;;;;5.63;48.51;100770.62;4480420;32;34949;-75
2022/03/25 06:28:00;;;;;;;16.20;6.95;;;;;;;5.45;49.11;100776.37;4477780;32;34289;-75
2022/03/25 06:30:46;;;;;;;16.90;6.82;;;;;;;5.24;49.82;100781.50;4479918;31;35567;-75
2022/03/25 06:33:32;;;;;;;19.15;6.85;;;;;;;5.42;49.49;100777.69;4480475;32;35537;-75
2022/03/25 06:36:18;;;;;;;15.85;7.18;;;;;;;5.68;49.14;100788.94;4477958;32;34347;-77
2022/03/25 06:39:05;;;;;;;16.42;7.25;;;;;;;6.12;48.00;100780.81;4480143;32;35223;-77
2022/03/25 06:41:51;;;;;;;14.00;7.40;;;;;;;5.95;48.29;100783.59;4480366;32;34530;-77
2022/03/25 06:44:37;;;;;;;18.23;7.47;;;;;;;6.25;47.54;100785.87;4473763;31;34988;-77
2022/03/25 06:47:24;;;;;;;13.57;6.82;;;;;;;6.61;46.59;100789.84;4479303;32;34572;-77
2022/03/25 06:50:13;;;;;;;14.63;7.07;;;;;;;6.95;46.30;100795.06;4480288;31;34132;-77
2022/03/25 06:53:01;;;;;;;17.62;7.25;;;;;;;7.26;46.04;100796.16;4468120;32;34586;-77
2022/03/25 06:55:49;;;;;;;17.48;7.03;;;;;;;7.46;45.83;100794.66;4480180;32;35924;-78
2022/03/25 06:58:37;;;;;;;20.02;8.93;;;;;;;8.20;43.73;100783.63;4479663;32;34692;-77
2022/03/25 07:01:25;;;;;;;17.50;7.57;;;;;;;9.07;42.21;100791.22;4459364;31;34152;-74
2022/03/25 07:04:11;;;;;;;16.55;7.97;;;;;;;8.38;42.80;100789.69;4474663;32;34755;-73
2022/03/25 07:06:58;;;;;;;15.68;7.35;;;;;;;9.00;41.45;100800.50;4469573;31;34975;-74
2022/03/25 07:09:44;;;;;;;16.83;7.82;;;;;;;9.44;40.53;100805.41;4470843;32;36035;-74
2022/03/25 07:12:31;;;;;;;16.87;7.25;;;;;;;9.66;39.72;100798.84;4478589;31;34161;-75
2022/03/25 07:15:17;;;;;;;18.12;8.13;;;;;;;10.11;37.41;100802.56;4478899;31;34254;-74
2022/03/25 07:18:04;;;;;;;14.77;7.22;;;;;;;10.33;37.75;100797.56;4476760;31;35019;-75
2022/03/25 07:20:49;;;;;;;18.58;7.43;;;;;;;10.66;35.46;100800.66;4455162;32;34706;-77
2022/03/25 07:23:36;;;;;;;19.75;8.00;;;;;;;10.73;35.19;100806.66;4466477;32;33994;-77
2022/03/25 07:26:22;;;;;;;16.55;7.95;;;;;;;10.76;35.11;100800.63;4479516;32;35220;-73
2022/03/25 07:29:10;;;;;;;17.00;7.82;;;;;;;10.94;34.91;100807.34;4468416;32;35059;-73
2022/03/25 07:31:57;;;;;;;17.35;8.38;;;;;;;11.52;34.50;100812.09;4474186;32;34512;-73
2022/03/25 07:34:43;;;;;;;18.10;8.13;;;;;;;11.37;34.31;100814.97;4478646;32;35132;-73
2022/03/25 07:37:29;;;;;;;17.80;7.93;;;;;;;11.21;33.85;100806.87;4480075;32;35213;-73
2022/03/25 07:40:17;;;;;;;16.12;6.97;;;;;;;11.38;33.90;100816.59;4479680;32;35972;-73
2022/03/25 07:43:03;;;;;;;16.12;8.63;;;;;;;11.70;33.54;100807.81;4467644;32;35621;-73
2022/03/25 07:45:50;;;;;;;17.73;7.78;;;;;;;11.88;32.80;100809.03;4479597;32;34279;-73
2022/03/25 07:48:37;;;;;;;14.93;7.87;;;;;;;11.87;33.58;100816.44;4479801;32;35153;-74
2022/03/25 07:51:24;;;;;;;15.43;7.68;;;;;;;11.84;33.34;100817.00;4466594;32;35032;-73
2022/03/25 07:54:10;;;;;;;16.95;8.20;;;;;;;12.13;33.26;100811.50;4478633;32;35414;-73
2022/03/25 07:56:58;;;;;;;15.30;7.47;;;;;;;11.83;33.06;100811.78;4477501;32;33084;-73
2022/03/25 07:59:45;;;;;;;15.38;7.90;;;;;;;11.62;32.96;100822.97;4478423;32;34586;-73
2022/03/25 08:02:31;;;;;;;18.25;7.05;;;;;;;11.91;32.91;100819.44;4473032;32;34884;-73
2022/03/25 08:05:18;;;;;;;14.75;7.00;;;;;;;12.00;32.81;100816.87;4479021;32;34461;-73
2022/03/25 08:08:05;;;;;;;15.27;7.78;;;;;;;12.63;32.09;100815.81;4465751;32;34410;-73
2022/03/25 08:10:56;;;;;;;15.73;7.05;;;;;;;12.59;31.68;100812.84;4474606;32;34335;-73
2022/03/25 08:13:42;;;;;;;19.92;7.60;;;;;;;13.02;31.24;100815.53;4480722;32;34623;-73
2022/03/25 08:16:28;;;;;;;14.27;6.57;;;;;;;12.81;31.61;100804.00;4473208;32;34899;-73
2022/03/25 08:19:15;;;;;;;16.23;8.07;;;;;;;13.01;31.35;100809.19;4478838;32;34664;-73
2022/03/25 08:22:01;;;;;;;12.85;7.18;;;;;;;12.70;31.33;100805.28;4469444;32;34665;-77
2022/03/25 08:27:58;;;;;;;14.77;6.37;;;;;;;13.19;31.47;100802.03;4481231;32;34621;-76
2022/03/25 08:30:46;;;;;;;12.32;6.75;;;;;;;13.32;30.90;100808.75;4481318;32;33817;-75
2022/03/25 08:33:32;;;;;;;15.55;6.90;;;;;;;13.55;30.69;100806.13;4467631;32;35209;-77
2022/03/25 08:36:18;;;;;;;15.82;7.25;;;;;;;13.11;30.37;100802.72;4457762;31;35701;-77
2022/03/25 08:39:05;;;;;;;13.40;6.87;;;;;;;13.79;30.06;100803.25;4480993;32;36775;-76
2022/03/25 08:41:51;;;;;;;19.00;7.90;;;;;;;13.93;29.66;100804.88;4481255;31;35158;-74
2022/03/25 08:44:38;;;;;;;14.27;6.55;;;;;;;14.02;29.68;100801.41;4475549;32;34716;-75
2022/03/25 08:47:24;;;;;;;13.73;7.35;;;;;;;13.78;29.64;100809.87;4480425;32;36009;-74
2022/03/25 08:50:12;;;;;;;17.50;6.82;;;;;;;14.31;29.63;100804.66;4480522;31;34690;-75
2022/03/25 08:52:58;;;;;;;15.90;6.80;;;;;;;14.33;28.91;100821.72;4481208;32;35131;-75
2022/03/25 08:55:45;;;;;;;14.10;6.60;;;;;;;14.43;28.70;100812.44;4464518;31;34104;-75
2022/03/25 08:58:31;;;;;;;14.95;7.12;;;;;;;15.04;27.59;100800.03;4481105;32;34925;-74
2022/03/25 09:01:18;;;;;;;17.83;7.43;;;;;;;14.11;28.56;100805.09;4480033;31;35473;-78
2022/03/25 09:04:04;;;;;;;14.90;7.18;;;;;;;14.05;28.47;100804.38;4473519;32;33623;-78
2022/03/25 09:06:51;;;;;;;15.20;7.40;;;;;;;14.39;28.49;100809.47;4474091;31;178187;-77
2022/03/25 09:09:37;;;;;;;15.85;7.30;;;;;;;14.23;28.21;100804.56;4470075;32;34861;-76
2022/03/25 09:12:24;;;;;;;17.00;7.30;;;;;;;14.22;28.49;100803.75;4480836;32;35305;-77
2022/03/25 09:15:13;;;;;;;14.70;6.57;;;;;;;13.88;28.87;100804.97;4480585;31;34415;-78
2022/03/25 09:17:59;;;;;;;14.80;7.12;;;;;;;13.93;28.39;100796.63;4459230;32;34219;-78
2022/03/25 09:20:51;;;;;;;17.35;6.50;;;;;;;14.07;28.33;100802.13;4480592;32;35931;-78
2022/03/25 09:23:37;;;;;;;13.52;6.62;;;;;;;14.55;28.35;100801.72;4480794;32;34593;-78
2022/03/25 09:26:25;;;;;;;14.30;6.28;;;;;;;14.54;27.99;100799.25;4480979;32;34260;-79
2022/03/25 09:29:11;;;;;;;15.13;6.87;;;;;;;15.04;27.28;100796.47;4467142;31;34709;-78
2022/03/25 09:31:58;;;;;;;17.33;6.35;;;;;;;15.03;27.43;100790.13;4480576;32;35948;-78
2022/03/25 09:35:13;;;;;;;13.95;6.22;;;;;;;16.17;26.34;100781.34;4480364;31;34624;-79
2022/03/25 09:37:59;;;;;;;15.43;6.93;;;;;;;15.79;26.75;100792.09;4478595;32;33664;-78
2022/03/25 09:40:47;;;;;;;15.25;7.03;;;;;;;15.05;27.52;100792.56;4480569;32;34730;-80
2022/03/25 09:43:37;;;;;;;20.08;7.80;;;;;;;15.05;27.34;100787.91;4478582;32;34953;-79
2022/03/25 09:46:25;;;;;;;;;;;;;;;15.01;28.16;100788.81;4480409;31;34617;-79
2022/03/25 09:49:12;;;;;;;15.43;6.53;;;;;;;15.32;27.18;100790.84;4476304;32;34051;-79
2022/03/25 09:51:59;;;;;;;15.70;6.93;;;;;;;15.44;27.35;100788.31;4472003;32;34376;-78
2022/03/25 09:54:45;;;;;;;14.77;6.70;;;;;;;15.22;27.35;100789.94;4473859;31;35861;-78
2022/03/25 09:57:32;;;;;;;14.60;7.07;;;;;;;16.01;26.48;100776.59;4456605;32;34642;-78
2022/03/25 10:00:19;;;;;;;16.52;7.68;;;;;;;16.32;26.14;100776.50;4479250;32;34153;-78
2022/03/25 10:03:04;;;;;;;21.27;7.18;;;;;;;17.17;25.61;100776.13;4474203;31;35841;-78
2022/03/25 10:05:59;;;;;;;18.35;8.10;;;;;;;16.29;25.66;100769.66;4469053;32;34548;-77
2022/03/25 10:09:02;;;;;;;18.87;8.32;;;;;;;16.63;25.47;100765.34;4471547;32;35657;-77
2022/03/25 10:11:50;;;;;;;16.55;8.45;;;;;;;16.62;26.06;100756.22;4480088;31;34499;-77
2022/03/25 10:14:36;;;;;;;15.50;9.05;;;;;;;17.60;24.40;100759.37;4478825;31;34634;-78
2022/03/25 10:17:22;;;;;;;15.07;8.30;;;;;;;19.22;22.47;100747.12;4472294;32;34530;-78
2022/03/25 10:20:10;;;;;;;16.05;8.52;;;;;;;18.26;22.92;100744.25;4474705;32;35534;-76
2022/03/25 10:23:09;;;;;;;16.40;8.65;;;;;;;19.02;22.62;100743.22;4464225;32;33825;-76
2022/03/25 10:25:56;;;;;;;19.10;9.43;;;;;;;17.31;24.15;100740.72;4479705;32;35563;-75
2022/03/25 10:28:47;;;;;;;19.27;8.80;;;;;;;18.50;22.68;100738.06;4478953;31;35928;-76
2022/03/25 10:31:33;;;;;;;17.67;9.40;;;;;;;19.43;22.06;100730.38;4469606;31;34595;-75
2022/03/25 10:34:21;;;;;;;16.62;8.38;;;;;;;17.58;24.13;100731.19;4446850;31;34905;-76
2022/03/25 10:37:11;;;;;;;16.42;8.70;;;;;;;18.66;23.48;100716.88;4478696;31;34248;-75
2022/03/25 10:39:57;;;;;;;11.98;5.72;;;;;;;17.90;23.75;100729.78;4479224;31;34873;-75
2022/03/25 10:43:06;;;;;;;14.02;6.45;;;;;;;18.25;22.41;100726.81;4480845;31;33541;-76
2022/03/25 10:45:52;;;;;;;13.88;7.18;;;;;;;16.80;24.39;100721.09;4480278;31;33938;-75
2022/03/25 10:48:40;;;;;;;16.45;7.37;;;;;;;17.34;23.97;100725.41;4480096;31;34914;-75
2022/03/25 10:51:27;;;;;;;15.55;6.68;;;;;;;16.69;24.01;100717.00;4465979;32;33931;-75
2022/03/25 10:54:13;;;;;;;15.77;6.95;;;;;;;16.40;24.84;100725.94;4472476;32;35234;-75
2022/03/25 10:57:01;;;;;;;15.68;7.43;;;;;;;17.61;23.83;100713.09;4467842;32;34123;-75
2022/03/25 10:59:58;;;;;;;16.83;8.23;;;;;;;17.55;23.72;100709.69;4472391;32;37023;-75
2022/03/25 11:02:45;;;;;;;12.35;7.40;;;;;;;17.67;23.44;100712.59;4479332;32;34616;-76
2022/03/25 11:05:32;;;;;;;19.50;8.13;;;;;;;19.21;21.60;100703.78;4473342;32;35609;-75
2022/03/25 11:08:19;;;;;;;13.80;8.88;;;;;;;19.00;21.80;100695.53;4468018;32;34629;-76
2022/03/25 11:11:10;;;;;;;19.98;9.07;;;;;;;17.46;23.32;100706.94;4474774;32;34220;-76
2022/03/25 11:13:56;;;;;;;15.90;8.38;;;;;;;16.92;24.98;100701.03;4479833;31;34987;-75
2022/03/25 11:16:47;;;;;;;16.95;8.05;;;;;;;16.69;24.51;100705.13;4478212;31;33247;-77
2022/03/25 11:19:34;;;;;;;15.77;8.15;;;;;;;17.30;23.86;100697.53;4478866;32;33734;-76
2022/03/25 11:22:22;;;;;;;17.08;8.05;;;;;;;17.89;23.32;100697.66;4476729;31;35514;-77
2022/03/25 11:25:12;;;;;;;17.35;8.07;;;;;;;18.31;22.92;100692.16;4480060;31;34987;-76
2022/03/25 11:28:04;;;;;;;15.27;7.82;;;;;;;18.20;23.27;100685.41;4470692;32;35454;-76
2022/03/25 11:31:02;;;;;;;15.13;7.60;;;;;;;17.67;23.48;100681.25;4474707;31;34162;-76
2022/03/25 11:34:12;;;;;;;12.88;7.70;;;;;;;18.28;22.90;100676.19;4475072;32;35485;-76
2022/03/25 11:37:16;;;;;;;17.60;7.97;;;;;;;17.76;23.43;100676.50;4471464;32;35734;-76
2022/03/25 11:40:15;;;;;;;17.80;8.02;;;;;;;18.32;23.67;100674.37;4470771;31;34670;-76
2022/03/25 11:43:18;;;;;;;15.38;8.20;;;;;;;18.74;22.67;100666.06;4479461;31;34265;-76
2022/03/25 11:46:06;;;;;;;13.80;6.65;;;;;;;17.90;23.82;100674.34;4465959;32;34582;-76
2022/03/25 11:48:53;;;;;;;16.40;7.80;;;;;;;18.24;23.32;100661.38;4481526;31;34993;-75
2022/03/25 11:51:39;;;;;;;16.90;7.72;;;;;;;18.21;23.97;100662.03;4482658;31;33652;-76
2022/03/25 11:54:41;;;;;;;15.70;7.37;;;;;;;18.84;22.46;100651.75;4481803;31;33893;-76
2022/03/25 11:57:28;;;;;;;13.67;7.13;;;;;;;18.60;23.33;100646.06;4481610;31;35147;-77
2022/03/25 12:00:26;;;;;;;15.25;5.65;;;;;;;18.20;23.06;100666.78;4477322;32;34606;-74
2022/03/25 13:42:10;;;;;;;13.40;5.90;;;;;;;18.70;21.46;100576.25;4458576;32;33931;-73
2022/03/25 13:45:09;;;;;;;14.90;6.32;;;;;;;17.90;23.15;100582.00;4449714;32;35139;-73
2022/03/25 13:48:03;;;;;;;13.00;6.22;;;;;;;18.32;22.43;100571.72;4464474;32;35597;-73
2022/03/25 13:50:55;;;;;;;10.23;5.07;;;;;;;18.73;22.15;100567.25;4442905;32;35858;-74
2022/03/25 13:53:42;;;;;;;10.40;5.12;;;;;;;18.45;22.21;100560.69;4456266;32;34656;-73
2022/03/25 13:56:38;;;;;;;10.90;5.97;;;;;;;18.50;22.19;100564.06;4452394;32;34099;-73
2022/03/25 13:59:31;;;;;;;10.98;5.40;;;;;;;17.96;22.19;100573.19;4462559;32;34635;-73
2022/03/25 14:02:21;;;;;;;11.20;5.20;;;;;;;18.42;21.98;100562.97;4452034;32;35562;-74
2022/03/25 14:05:13;;;;;;;12.48;6.25;;;;;;;19.28;21.57;100568.72;4455630;32;34616;-73
2022/03/25 14:07:59;;;;;;;13.32;5.47;;;;;;;18.09;22.13;100562.94;4461570;32;34685;-73
2022/03/25 14:10:58;;;;;;;10.32;5.15;;;;;;;18.09;22.18;100551.84;4458308;32;34723;-73
2022/03/25 14:14:01;;;;;;;11.82;4.80;;;;;;;18.34;22.36;100558.31;4437737;32;34578;-73
2022/03/25 14:16:54;;;;;;;12.37;5.30;;;;;;;19.22;21.11;100547.88;4446132;32;35378;-73
2022/03/25 14:19:40;;;;;;;11.68;5.72;;;;;;;18.65;21.88;100551.50;4429762;32;34417;-72
2022/03/25 14:22:28;;;;;;;11.18;5.18;;;;;;;18.75;21.53;100551.06;4449589;32;34112;-72
2022/03/25 14:25:16;;;;;;;10.95;5.03;;;;;;;18.55;21.46;100557.47;4437941;32;35611;-72
2022/03/25 14:28:10;;;;;;;11.10;4.22;;;;;;;19.21;20.88;100546.28;4443656;32;35493;-72
2022/03/25 14:31:02;;;;;;;10.52;5.78;;;;;;;19.80;20.22;100544.94;4449001;32;34095;-73
2022/03/25 14:33:49;;;;;;;10.23;4.40;;;;;;;18.35;21.69;100542.47;4462290;32;34848;-73
2022/03/25 14:36:41;;;;;;;11.02;5.15;;;;;;;18.83;21.15;100550.16;4451334;32;35062;-72
2022/03/25 14:39:28;;;;;;;11.30;3.87;;;;;;;18.53;21.42;100543.94;4449246;32;34523;-73